sensor_id;sensor_type;location;lat;lon;timestamp;pressure;altitude;pressure_sealevel;temperature;humidity
63493;BME280;49638;47.526;10.028;2022-08-19T00:01:44;91430.25;;;15.69;98.93
63493;BME280;49638;47.526;10.028;2022-08-19T00:04:44;91424.97;;;15.64;98.87
63493;BME280;49638;47.526;10.028;2022-08-19T00:07:47;91427.59;;;15.69;98.99
63493;BME280;49638;47.526;10.028;2022-08-19T00:10:48;91416.69;;;15.70;99.16
63493;BME280;49638;47.526;10.028;2022-08-19T00:13:48;91417.47;;;15.71;99.19
63493;BME280;49638;47.526;10.028;2022-08-19T00:16:50;91419.03;;;15.72;99.16
63493;BME280;49638;47.526;10.028;2022-08-19T00:19:54;91412.69;;;15.68;100.00
63493;BME280;49638;47.526;10.028;2022-08-19T00:22:54;91408.19;;;15.63;99.10
63493;BME280;49638;47.526;10.028;2022-08-19T00:25:54;91418.31;;;15.66;99.45
63493;BME280;49638;47.526;10.028;2022-08-19T00:28:55;91426.53;;;15.70;98.97
63493;BME280;49638;47.526;10.028;2022-08-19T00:31:56;91415.81;;;15.75;99.11
63493;BME280;49638;47.526;10.028;2022-08-19T00:34:58;91420.44;;;15.69;99.56
63493;BME280;49638;47.526;10.028;2022-08-19T00:37:59;91421.22;;;15.70;99.78
63493;BME280;49638;47.526;10.028;2022-08-19T00:40:59;91423.88;;;15.70;99.75
63493;BME280;49638;47.526;10.028;2022-08-19T00:47:03;91407.66;;;15.66;99.59
63493;BME280;49638;47.526;10.028;2022-08-19T00:50:04;91391.63;;;15.71;99.82
63493;BME280;49638;47.526;10.028;2022-08-19T00:53:06;91385.28;;;15.62;100.00
63493;BME280;49638;47.526;10.028;2022-08-19T00:56:06;91385.84;;;15.59;100.00
63493;BME280;49638;47.526;10.028;2022-08-19T00:59:08;91381.88;;;15.56;100.00
63493;BME280;49638;47.526;10.028;2022-08-19T01:02:09;91390.59;;;15.62;100.00
63493;BME280;49638;47.526;10.028;2022-08-19T01:05:13;91374.63;;;15.62;100.00
63493;BME280;49638;47.526;10.028;2022-08-19T01:08:16;91369.53;;;15.66;100.00
63493;BME280;49638;47.526;10.028;2022-08-19T01:11:17;91361.06;;;15.58;100.00
63493;BME280;49638;47.526;10.028;2022-08-19T01:14:18;91355.50;;;15.55;100.00
63493;BME280;49638;47.526;10.028;2022-08-19T01:17:19;91375.25;;;15.54;100.00
63493;BME280;49638;47.526;10.028;2022-08-19T01:20:22;91385.09;;;15.53;100.00
63493;BME280;49638;47.526;10.028;2022-08-19T01:23:22;91379.00;;;15.53;100.00
63493;BME280;49638;47.526;10.028;2022-08-19T01:26:43;91377.38;;;15.52;100.00
63493;BME280;49638;47.526;10.028;2022-08-19T01:29:44;91357.47;;;15.44;100.00
63493;BME280;49638;47.526;10.028;2022-08-19T01:32:46;91391.50;;;15.52;100.00
63493;BME280;49638;47.526;10.028;2022-08-19T01:35:47;91394.44;;;15.51;100.00
63493;BME280;49638;47.526;10.028;2022-08-19T01:38:51;91394.44;;;15.51;100.00
63493;BME280;49638;47.526;10.028;2022-08-19T01:41:52;91391.50;;;15.52;100.00
63493;BME280;49638;47.526;10.028;2022-08-19T01:44:54;91373.19;;;15.46;100.00
63493;BME280;49638;47.526;10.028;2022-08-19T01:47:55;91377.66;;;15.50;100.00
63493;BME280;49638;47.526;10.028;2022-08-19T01:50:55;91369.16;;;15.48;100.00
63493;BME280;49638;47.526;10.028;2022-08-19T01:53:56;91364.06;;;15.52;100.00
63493;BME280;49638;47.526;10.028;2022-08-19T01:57:05;91359.03;;;15.50;100.00
63493;BME280;49638;47.526;10.028;2022-08-19T02:00:10;91352.34;;;15.53;100.00
63493;BME280;49638;47.526;10.028;2022-08-19T02:03:11;91356.06;;;15.52;100.00
63493;BME280;49638;47.526;10.028;2022-08-19T02:06:12;91355.28;;;15.51;100.00
63493;BME280;49638;47.526;10.028;2022-08-19T02:09:12;91345.19;;;15.48;100.00
63493;BME280;49638;47.526;10.028;2022-08-19T02:12:14;91356.88;;;15.52;100.00
63493;BME280;49638;47.526;10.028;2022-08-19T02:15:15;91356.31;;;15.55;100.00
63493;BME280;49638;47.526;10.028;2022-08-19T02:18:16;91349.47;;;15.49;100.00
63493;BME280;49638;47.526;10.028;2022-08-19T02:21:17;91355.81;;;15.53;100.00
63493;BME280;49638;47.526;10.028;2022-08-19T02:24:18;91337.19;;;15.48;100.00
63493;BME280;49638;47.526;10.028;2022-08-19T02:27:18;91344.13;;;15.49;100.00
63493;BME280;49638;47.526;10.028;2022-08-19T02:30:20;91340.66;;;15.49;100.00
63493;BME280;49638;47.526;10.028;2022-08-19T02:33:20;91336.97;;;15.45;100.00
63493;BME280;49638;47.526;10.028;2022-08-19T02:36:21;91337.53;;;15.42;100.00
63493;BME280;49638;47.526;10.028;2022-08-19T02:39:21;91344.94;;;15.50;100.00
63493;BME280;49638;47.526;10.028;2022-08-19T02:42:21;91337.53;;;15.42;100.00
63493;BME280;49638;47.526;10.028;2022-08-19T02:45:22;91332.72;;;15.44;100.00
63493;BME280;49638;47.526;10.028;2022-08-19T02:48:25;91343.56;;;15.52;100.00
63493;BME280;49638;47.526;10.028;2022-08-19T02:51:28;91344.38;;;15.53;100.00
63493;BME280;49638;47.526;10.028;2022-08-19T02:54:28;91342.19;;;15.55;100.00
63493;BME280;49638;47.526;10.028;2022-08-19T02:57:30;91341.97;;;15.51;100.00
63493;BME280;49638;47.526;10.028;2022-08-19T03:00:31;91333.25;;;15.46;100.00
63493;BME280;49638;47.526;10.028;2022-08-19T03:03:32;91341.19;;;15.51;100.00
63493;BME280;49638;47.526;10.028;2022-08-19T03:06:36;91336.38;;;15.53;100.00
63493;BME280;49638;47.526;10.028;2022-08-19T03:09:37;91330.25;;;15.52;100.00
63493;BME280;49638;47.526;10.028;2022-08-19T03:12:38;91332.41;;;15.50;100.00
63493;BME280;49638;47.526;10.028;2022-08-19T03:15:40;91336.16;;;15.49;100.00
63493;BME280;49638;47.526;10.028;2022-08-19T03:18:41;91336.16;;;15.49;100.00
63493;BME280;49638;47.526;10.028;2022-08-19T03:21:43;91338.50;;;15.51;100.00
63493;BME280;49638;47.526;10.028;2022-08-19T03:24:44;91337.75;;;15.45;100.00
63493;BME280;49638;47.526;10.028;2022-08-19T03:27:44;91342.53;;;15.48;100.00
63493;BME280;49638;47.526;10.028;2022-08-19T03:30:59;91340.41;;;15.45;100.00
63493;BME280;49638;47.526;10.028;2022-08-19T03:34:00;91329.84;;;15.40;100.00
63493;BME280;49638;47.526;10.028;2022-08-19T03:37:06;91322.94;;;15.39;100.00
63493;BME280;49638;47.526;10.028;2022-08-19T03:40:07;91328.72;;;15.46;100.00
63493;BME280;49638;47.526;10.028;2022-08-19T03:43:07;91321.06;;;15.40;100.00
63493;BME280;49638;47.526;10.028;2022-08-19T03:46:11;91316.78;;;15.38;100.00
63493;BME280;49638;47.526;10.028;2022-08-19T03:49:12;91326.63;;;15.43;100.00
63493;BME280;49638;47.526;10.028;2022-08-19T03:52:12;91320.72;;;15.46;100.00
63493;BME280;49638;47.526;10.028;2022-08-19T03:55:13;91311.94;;;15.46;100.00
63493;BME280;49638;47.526;10.028;2022-08-19T03:58:13;91307.41;;;15.46;100.00
63493;BME280;49638;47.526;10.028;2022-08-19T04:01:17;91305.53;;;15.47;100.00
63493;BME280;49638;47.526;10.028;2022-08-19T04:04:17;91300.47;;;15.45;100.00
63493;BME280;49638;47.526;10.028;2022-08-19T04:07:18;91299.97;;;15.43;100.00
63493;BME280;49638;47.526;10.028;2022-08-19T04:10:21;91280.88;;;15.36;100.00
63493;BME280;49638;47.526;10.028;2022-08-19T04:13:22;91297.03;;;15.45;100.00
63493;BME280;49638;47.526;10.028;2022-08-19T04:16:26;91310.06;;;15.46;100.00
63493;BME280;49638;47.526;10.028;2022-08-19T04:19:31;91311.13;;;15.45;100.00
63493;BME280;49638;47.526;10.028;2022-08-19T04:22:31;91321.78;;;15.45;100.00
63493;BME280;49638;47.526;10.028;2022-08-19T04:25:38;91334.03;;;15.46;100.00
63493;BME280;49638;47.526;10.028;2022-08-19T04:28:38;91336.75;;;15.41;100.00
63493;BME280;49638;47.526;10.028;2022-08-19T04:31:40;91350.59;;;15.43;100.00
63493;BME280;49638;47.526;10.028;2022-08-19T04:34:41;91351.38;;;15.44;100.00
63493;BME280;49638;47.526;10.028;2022-08-19T04:37:42;91351.94;;;15.41;100.00
63493;BME280;49638;47.526;10.028;2022-08-19T04:40:45;91359.66;;;15.42;100.00
63493;BME280;49638;47.526;10.028;2022-08-19T04:44:04;91353.84;;;15.35;100.00
63493;BME280;49638;47.526;10.028;2022-08-19T04:47:05;91371.44;;;15.31;100.00
63493;BME280;49638;47.526;10.028;2022-08-19T04:50:07;91368.28;;;15.29;100.00
63493;BME280;49638;47.526;10.028;2022-08-19T04:53:09;91364.25;;;15.31;100.00
63493;BME280;49638;47.526;10.028;2022-08-19T04:56:14;91360.31;;;15.29;100.00
63493;BME280;49638;47.526;10.028;2022-08-19T04:59:14;91358.19;;;15.26;100.00
63493;BME280;49638;47.526;10.028;2022-08-19T05:02:15;91365.63;;;15.29;100.00
63493;BME280;49638;47.526;10.028;2022-08-19T05:05:16;91374.91;;;15.31;100.00
63493;BME280;49638;47.526;10.028;2022-08-19T05:08:19;91380.47;;;15.35;100.00
63493;BME280;49638;47.526;10.028;2022-08-19T05:11:25;91373.09;;;15.27;100.00
63493;BME280;49638;47.526;10.028;2022-08-19T05:14:26;91392.16;;;15.39;100.00
63493;BME280;49638;47.526;10.028;2022-08-19T05:17:27;91384.97;;;15.40;100.00
63493;BME280;49638;47.526;10.028;2022-08-19T05:20:27;91388.41;;;15.40;100.00
63493;BME280;49638;47.526;10.028;2022-08-19T05:23:46;91393.22;;;15.38;100.00
63493;BME280;49638;47.526;10.028;2022-08-19T05:26:48;91395.31;;;15.41;100.00
63493;BME280;49638;47.526;10.028;2022-08-19T05:29:49;91391.59;;;15.42;100.00
63493;BME280;49638;47.526;10.028;2022-08-19T05:32:49;91372.44;;;15.40;100.00
63493;BME280;49638;47.526;10.028;2022-08-19T05:35:50;91380.97;;;15.42;100.00
63493;BME280;49638;47.526;10.028;2022-08-19T05:38:50;91381.97;;;15.46;100.00
63493;BME280;49638;47.526;10.028;2022-08-19T05:41:57;91397.41;;;15.49;100.00
63493;BME280;49638;47.526;10.028;2022-08-19T05:44:58;91387.56;;;15.45;100.00
63493;BME280;49638;47.526;10.028;2022-08-19T05:47:58;91392.09;;;15.44;100.00
63493;BME280;49638;47.526;10.028;2022-08-19T05:51:04;91393.69;;;15.45;100.00
63493;BME280;49638;47.526;10.028;2022-08-19T05:54:06;91382.78;;;15.47;100.00
63493;BME280;49638;47.526;10.028;2022-08-19T05:57:08;91373.75;;;15.43;100.00
63493;BME280;49638;47.526;10.028;2022-08-19T06:00:10;91372.38;;;15.45;100.00
63493;BME280;49638;47.526;10.028;2022-08-19T06:03:10;91371.31;;;15.46;100.00
63493;BME280;49638;47.526;10.028;2022-08-19T06:06:17;91372.66;;;15.44;100.00
63493;BME280;49638;47.526;10.028;2022-08-19T06:09:19;91367.03;;;15.50;100.00
63493;BME280;49638;47.526;10.028;2022-08-19T06:12:20;91361.22;;;15.43;100.00
63493;BME280;49638;47.526;10.028;2022-08-19T06:15:26;91367.03;;;15.50;100.00
63493;BME280;49638;47.526;10.028;2022-08-19T06:18:27;91366.72;;;15.52;100.00
63493;BME280;49638;47.526;10.028;2022-08-19T06:21:29;91368.59;;;15.51;100.00
63493;BME280;49638;47.526;10.028;2022-08-19T06:24:30;91367.81;;;15.51;100.00
63493;BME280;49638;47.526;10.028;2022-08-19T06:27:31;91363.84;;;15.48;100.00
63493;BME280;49638;47.526;10.028;2022-08-19T06:30:33;91361.97;;;15.49;100.00
63493;BME280;49638;47.526;10.028;2022-08-19T06:33:33;91372.34;;;15.50;100.00
63493;BME280;49638;47.526;10.028;2022-08-19T06:36:52;91375.53;;;15.52;100.00
63493;BME280;49638;47.526;10.028;2022-08-19T06:39:52;91380.88;;;15.52;100.00
63493;BME280;49638;47.526;10.028;2022-08-19T06:42:52;91381.97;;;15.46;100.00
63493;BME280;49638;47.526;10.028;2022-08-19T06:45:53;91390.69;;;15.52;100.00
63493;BME280;49638;47.526;10.028;2022-08-19T06:48:53;91381.97;;;15.46;100.00
63493;BME280;49638;47.526;10.028;2022-08-19T06:51:54;91389.41;;;15.49;100.00
63493;BME280;49638;47.526;10.028;2022-08-19T06:54:56;91390.22;;;15.45;100.00
63493;BME280;49638;47.526;10.028;2022-08-19T06:57:57;91395.22;;;15.51;100.00
63493;BME280;49638;47.526;10.028;2022-08-19T07:00:59;91395.22;;;15.51;100.00
63493;BME280;49638;47.526;10.028;2022-08-19T07:04:01;91386.28;;;15.42;100.00
63493;BME280;49638;47.526;10.028;2022-08-19T07:07:05;91397.91;;;15.51;100.00
63493;BME280;49638;47.526;10.028;2022-08-19T07:10:08;91408.28;;;15.53;100.00
63493;BME280;49638;47.526;10.028;2022-08-19T07:13:09;91409.31;;;15.57;100.00
63493;BME280;49638;47.526;10.028;2022-08-19T07:16:13;91404.25;;;15.55;100.00
63493;BME280;49638;47.526;10.028;2022-08-19T07:19:14;91402.16;;;15.52;100.00
63493;BME280;49638;47.526;10.028;2022-08-19T07:22:15;91405.38;;;15.49;100.00
63493;BME280;49638;47.526;10.028;2022-08-19T07:25:16;91395.84;;;15.43;100.00
63493;BME280;49638;47.526;10.028;2022-08-19T07:28:17;91400.56;;;15.51;100.00
63493;BME280;49638;47.526;10.028;2022-08-19T07:31:21;91399.78;;;15.51;100.00
63493;BME280;49638;47.526;10.028;2022-08-19T07:34:23;91397.09;;;15.51;100.00
63493;BME280;49638;47.526;10.028;2022-08-19T07:37:24;91399.53;;;15.47;100.00
63493;BME280;49638;47.526;10.028;2022-08-19T07:40:26;91403.75;;;15.53;100.00
63493;BME280;49638;47.526;10.028;2022-08-19T07:43:28;91394.44;;;15.51;100.00
63493;BME280;49638;47.526;10.028;2022-08-19T07:46:32;91399.69;;;15.61;100.00
63493;BME280;49638;47.526;10.028;2022-08-19T07:49:33;91397.00;;;15.61;100.00
63493;BME280;49638;47.526;10.028;2022-08-19T07:52:34;91401.00;;;15.64;100.00
63493;BME280;49638;47.526;10.028;2022-08-19T07:55:35;91397.53;;;15.63;100.00
63493;BME280;49638;47.526;10.028;2022-08-19T07:58:39;91393.56;;;15.60;100.00
63493;BME280;49638;47.526;10.028;2022-08-19T08:01:39;91412.72;;;15.63;100.00
63493;BME280;49638;47.526;10.028;2022-08-19T08:04:40;91402.91;;;15.58;100.00
63493;BME280;49638;47.526;10.028;2022-08-19T08:07:59;91398.34;;;15.58;100.00
63493;BME280;49638;47.526;10.028;2022-08-19T08:11:19;91398.81;;;15.66;100.00
63493;BME280;49638;47.526;10.028;2022-08-19T08:14:24;91397.25;;;15.70;100.00
63493;BME280;49638;47.526;10.028;2022-08-19T08:17:27;91410.25;;;15.71;100.00
63493;BME280;49638;47.526;10.028;2022-08-19T08:20:28;91414.50;;;15.72;100.00
63493;BME280;49638;47.526;10.028;2022-08-19T08:23:28;91409.19;;;15.72;100.00
63493;BME280;49638;47.526;10.028;2022-08-19T08:26:30;91402.34;;;15.66;100.00
63493;BME280;49638;47.526;10.028;2022-08-19T08:29:30;91418.78;;;15.73;100.00
63493;BME280;49638;47.526;10.028;2022-08-19T08:32:31;91422.78;;;15.71;100.00
63493;BME280;49638;47.526;10.028;2022-08-19T08:35:31;91420.13;;;15.71;100.00
63493;BME280;49638;47.526;10.028;2022-08-19T08:38:32;91422.50;;;15.72;100.00
63493;BME280;49638;47.526;10.028;2022-08-19T08:44:59;91434.53;;;15.70;100.00
63493;BME280;49638;47.526;10.028;2022-08-19T08:48:07;91434.53;;;15.70;100.00
63493;BME280;49638;47.526;10.028;2022-08-19T08:51:34;91442.53;;;15.65;100.00
63493;BME280;49638;47.526;10.028;2022-08-19T08:54:39;91451.88;;;15.62;100.00
63493;BME280;49638;47.526;10.028;2022-08-19T09:00:54;91445.28;;;15.54;100.00
63493;BME280;49638;47.526;10.028;2022-08-19T09:03:55;91445.81;;;15.56;100.00
63493;BME280;49638;47.526;10.028;2022-08-19T09:07:30;91453.28;;;15.54;100.00
63493;BME280;49638;47.526;10.028;2022-08-19T09:10:43;91455.69;;;15.51;100.00
63493;BME280;49638;47.526;10.028;2022-08-19T09:14:07;91453.81;;;15.51;100.00
63493;BME280;49638;47.526;10.028;2022-08-19T09:17:09;91460.75;;;15.52;100.00
63493;BME280;49638;47.526;10.028;2022-08-19T09:23:10;91467.91;;;15.57;100.00
63493;BME280;49638;47.526;10.028;2022-08-19T09:26:13;91467.38;;;15.55;100.00
63493;BME280;49638;47.526;10.028;2022-08-19T09:29:14;91471.41;;;15.52;100.00
63493;BME280;49638;47.526;10.028;2022-08-19T09:32:15;91465.03;;;15.48;100.00
63493;BME280;49638;47.526;10.028;2022-08-19T09:35:15;91472.72;;;15.55;100.00
63493;BME280;49638;47.526;10.028;2022-08-19T09:38:15;91471.97;;;15.49;100.00
63493;BME280;49638;47.526;10.028;2022-08-19T09:41:19;91477.78;;;15.56;100.00
63493;BME280;49638;47.526;10.028;2022-08-19T09:44:20;91471.91;;;15.54;100.00
63493;BME280;49638;47.526;10.028;2022-08-19T09:47:20;91479.13;;;15.54;100.00
63493;BME280;49638;47.526;10.028;2022-08-19T09:50:22;91479.91;;;15.54;100.00
63493;BME280;49638;47.526;10.028;2022-08-19T09:53:23;91481.78;;;15.54;100.00
63493;BME280;49638;47.526;10.028;2022-08-19T09:56:24;91495.34;;;15.57;100.00
63493;BME280;49638;47.526;10.028;2022-08-19T09:59:24;91483.09;;;15.56;100.00
63493;BME280;49638;47.526;10.028;2022-08-19T10:02:24;91490.78;;;15.58;100.00
63493;BME280;49638;47.526;10.028;2022-08-19T10:05:25;91481.81;;;15.49;100.00
63493;BME280;49638;47.526;10.028;2022-08-19T10:08:44;91501.19;;;15.59;100.00
63493;BME280;49638;47.526;10.028;2022-08-19T10:11:45;91500.38;;;15.59;100.00
63493;BME280;49638;47.526;10.028;2022-08-19T10:14:48;91500.91;;;15.61;100.00
63493;BME280;49638;47.526;10.028;2022-08-19T10:17:48;91500.44;;;15.54;100.00
63493;BME280;49638;47.526;10.028;2022-08-19T10:20:50;91512.34;;;15.61;100.00
63493;BME280;49638;47.526;10.028;2022-08-19T10:23:53;91520.88;;;15.64;100.00
63493;BME280;49638;47.526;10.028;2022-08-19T10:26:55;91511.78;;;15.65;100.00
63493;BME280;49638;47.526;10.028;2022-08-19T10:29:55;91509.69;;;15.67;100.00
63493;BME280;49638;47.526;10.028;2022-08-19T10:32:56;91506.47;;;15.65;100.00
63493;BME280;49638;47.526;10.028;2022-08-19T10:36:01;91511.78;;;15.65;100.00
63493;BME280;49638;47.526;10.028;2022-08-19T10:39:04;91524.56;;;15.73;100.00
63493;BME280;49638;47.526;10.028;2022-08-19T10:42:06;91524.56;;;15.73;100.00
63493;BME280;49638;47.526;10.028;2022-08-19T10:45:07;91524.56;;;15.73;100.00
63493;BME280;49638;47.526;10.028;2022-08-19T10:48:09;91519.72;;;15.75;100.00
63493;BME280;49638;47.526;10.028;2022-08-19T10:51:10;91520.25;;;15.77;100.00
63493;BME280;49638;47.526;10.028;2022-08-19T10:54:29;91505.38;;;15.71;100.00
63493;BME280;49638;47.526;10.028;2022-08-19T10:57:49;91520.22;;;15.82;100.00
63493;BME280;49638;47.526;10.028;2022-08-19T11:00:57;91516.50;;;15.83;100.00
63493;BME280;49638;47.526;10.028;2022-08-19T11:03:57;91518.34;;;15.82;100.00
63493;BME280;49638;47.526;10.028;2022-08-19T11:06:57;91516.50;;;15.83;100.00
63493;BME280;49638;47.526;10.028;2022-08-19T11:09:58;91501.84;;;15.80;100.00
63493;BME280;49638;47.526;10.028;2022-08-19T11:12:58;91514.84;;;15.87;100.00
63493;BME280;49638;47.526;10.028;2022-08-19T11:16:06;91512.97;;;15.88;100.00
63493;BME280;49638;47.526;10.028;2022-08-19T11:19:09;91503.41;;;15.87;100.00
63493;BME280;49638;47.526;10.028;2022-08-19T11:22:09;91498.63;;;15.83;100.00
63493;BME280;49638;47.526;10.028;2022-08-19T11:25:10;91508.66;;;15.92;100.00
63493;BME280;49638;47.526;10.028;2022-08-19T11:28:12;91514.19;;;16.00;100.00
63493;BME280;49638;47.526;10.028;2022-08-19T11:31:18;91515.50;;;16.03;100.00
63493;BME280;49638;47.526;10.028;2022-08-19T11:34:21;91515.22;;;16.04;100.00
63493;BME280;49638;47.526;10.028;2022-08-19T11:37:21;91503.31;;;15.97;100.00
63493;BME280;49638;47.526;10.028;2022-08-19T11:40:22;91505.34;;;16.05;100.00
63493;BME280;49638;47.526;10.028;2022-08-19T11:43:22;91503.78;;;16.04;100.00
63493;BME280;49638;47.526;10.028;2022-08-19T11:46:25;91507.91;;;16.15;100.00
63493;BME280;49638;47.526;10.028;2022-08-19T11:49:25;91503.94;;;16.13;100.00
63493;BME280;49638;47.526;10.028;2022-08-19T11:52:26;91509.00;;;16.14;100.00
63493;BME280;49638;47.526;10.028;2022-08-19T11:55:26;91499.91;;;16.15;100.00
63493;BME280;49638;47.526;10.028;2022-08-19T11:58:27;91505.72;;;16.22;100.00
63493;BME280;49638;47.526;10.028;2022-08-19T12:01:29;91504.94;;;16.22;100.00
63493;BME280;49638;47.526;10.028;2022-08-19T12:04:29;91493.72;;;16.20;100.00
63493;BME280;49638;47.526;10.028;2022-08-19T12:07:29;91505.47;;;16.19;100.00
63493;BME280;49638;47.526;10.028;2022-08-19T12:10:34;91508.91;;;16.24;100.00
63493;BME280;49638;47.526;10.028;2022-08-19T12:13:34;91503.13;;;16.17;100.00
63493;BME280;49638;47.526;10.028;2022-08-19T12:16:35;91505.47;;;16.19;100.00
63493;BME280;49638;47.526;10.028;2022-08-19T12:19:36;91508.69;;;16.21;100.00
63493;BME280;49638;47.526;10.028;2022-08-19T12:22:37;91516.38;;;16.22;100.00
63493;BME280;49638;47.526;10.028;2022-08-19T12:25:44;91519.59;;;16.19;100.00
63493;BME280;49638;47.526;10.028;2022-08-19T12:28:49;91505.81;;;16.12;100.00
63493;BME280;49638;47.526;10.028;2022-08-19T12:31:51;91520.69;;;16.18;100.00
63493;BME280;49638;47.526;10.028;2022-08-19T12:34:51;91507.16;;;16.09;100.00
63493;BME280;49638;47.526;10.028;2022-08-19T12:37:51;91517.00;;;16.14;100.00
63493;BME280;49638;47.526;10.028;2022-08-19T12:40:52;91521.81;;;16.12;100.00
63493;BME280;49638;47.526;10.028;2022-08-19T12:43:52;91527.69;;;16.09;100.00
63493;BME280;49638;47.526;10.028;2022-08-19T12:46:52;91522.69;;;16.02;100.00
63493;BME280;49638;47.526;10.028;2022-08-19T12:49:53;91535.78;;;15.99;100.00
63493;BME280;49638;47.526;10.028;2022-08-19T12:52:54;91528.91;;;15.93;100.00
63493;BME280;49638;47.526;10.028;2022-08-19T12:55:56;91525.03;;;15.80;100.00
63493;BME280;49638;47.526;10.028;2022-08-19T12:58:57;91529.38;;;15.71;100.00
63493;BME280;49638;47.526;10.028;2022-08-19T13:01:57;91544.81;;;15.69;100.00
63493;BME280;49638;47.526;10.028;2022-08-19T13:04:57;91537.94;;;15.63;100.00
63493;BME280;49638;47.526;10.028;2022-08-19T13:07:59;91529.44;;;15.55;100.00
63493;BME280;49638;47.526;10.028;2022-08-19T13:11:07;91541.16;;;15.59;100.00
63493;BME280;49638;47.526;10.028;2022-08-19T13:14:07;91548.38;;;15.54;100.00
63493;BME280;49638;47.526;10.028;2022-08-19T13:17:08;91555.03;;;15.51;100.00
63493;BME280;49638;47.526;10.028;2022-08-19T13:20:09;91551.88;;;15.44;100.00
63493;BME280;49638;47.526;10.028;2022-08-19T13:23:10;91544.75;;;15.34;100.00
63493;BME280;49638;47.526;10.028;2022-08-19T13:26:11;91557.81;;;15.36;100.00
63493;BME280;49638;47.526;10.028;2022-08-19T13:29:12;91551.44;;;15.32;100.00
63493;BME280;49638;47.526;10.028;2022-08-19T13:32:31;91562.09;;;15.32;100.00
63493;BME280;49638;47.526;10.028;2022-08-19T13:35:58;91558.91;;;15.30;100.00
63493;BME280;49638;47.526;10.028;2022-08-19T13:39:00;91545.09;;;15.23;100.00
63493;BME280;49638;47.526;10.028;2022-08-19T13:42:01;91555.22;;;15.21;100.00
63493;BME280;49638;47.526;10.028;2022-08-19T13:45:02;91558.41;;;15.23;100.00
63493;BME280;49638;47.526;10.028;2022-08-19T13:48:04;91562.16;;;15.22;100.00
63493;BME280;49638;47.526;10.028;2022-08-19T13:51:11;91569.06;;;15.18;100.00
63493;BME280;49638;47.526;10.028;2022-08-19T13:54:12;91574.38;;;15.23;100.00
63493;BME280;49638;47.526;10.028;2022-08-19T13:57:13;91576.03;;;15.13;100.00
63493;BME280;49638;47.526;10.028;2022-08-19T14:00:16;91567.53;;;15.06;100.00
63493;BME280;49638;47.526;10.028;2022-08-19T14:03:18;91573.41;;;15.08;100.00
63493;BME280;49638;47.526;10.028;2022-08-19T14:06:19;91564.34;;;15.09;100.00
63493;BME280;49638;47.526;10.028;2022-08-19T14:09:19;91571.50;;;15.14;100.00
63493;BME280;49638;47.526;10.028;2022-08-19T14:12:20;91569.41;;;15.06;100.00
63493;BME280;49638;47.526;10.028;2022-08-19T14:15:21;91571.78;;;15.12;100.00
63493;BME280;49638;47.526;10.028;2022-08-19T14:18:21;91566.97;;;15.14;100.00
63493;BME280;49638;47.526;10.028;2022-08-19T14:21:22;91574.41;;;15.18;100.00
63493;BME280;49638;47.526;10.028;2022-08-19T14:24:24;91576.03;;;15.13;100.00
63493;BME280;49638;47.526;10.028;2022-08-19T14:27:24;91582.94;;;15.14;100.00
63493;BME280;49638;47.526;10.028;2022-08-19T14:30:31;91568.63;;;15.05;100.00
63493;BME280;49638;47.526;10.028;2022-08-19T14:33:31;91583.50;;;15.11;100.00
63493;BME280;49638;47.526;10.028;2022-08-19T14:36:32;91593.06;;;15.12;100.00
63493;BME280;49638;47.526;10.028;2022-08-19T14:39:34;91609.00;;;15.18;100.00
63493;BME280;49638;47.526;10.028;2022-08-19T14:42:34;91600.53;;;15.10;100.00
63493;BME280;49638;47.526;10.028;2022-08-19T14:45:38;91616.50;;;15.16;100.00
63493;BME280;49638;47.526;10.028;2022-08-19T14:48:38;91607.19;;;15.08;100.00
63493;BME280;49638;47.526;10.028;2022-08-19T14:51:38;91632.19;;;15.17;100.00
63493;BME280;49638;47.526;10.028;2022-08-19T14:54:39;91628.47;;;15.13;100.00
63493;BME280;49638;47.526;10.028;2022-08-19T14:57:42;91629.84;;;15.05;100.00
63493;BME280;49638;47.526;10.028;2022-08-19T15:00:43;91640.75;;;15.09;100.00
63493;BME280;49638;47.526;10.028;2022-08-19T15:03:43;91637.56;;;15.02;100.00
63493;BME280;49638;47.526;10.028;2022-08-19T15:06:43;91646.06;;;15.04;100.00
63493;BME280;49638;47.526;10.028;2022-08-19T15:09:43;91651.66;;;15.02;100.00
63493;BME280;49638;47.526;10.028;2022-08-19T15:12:44;91647.13;;;14.98;100.00
63493;BME280;49638;47.526;10.028;2022-08-19T15:15:44;91666.03;;;15.01;100.00
63493;BME280;49638;47.526;10.028;2022-08-19T15:18:48;91672.16;;;14.97;100.00
63493;BME280;49638;47.526;10.028;2022-08-19T15:21:49;91670.59;;;14.96;100.00
63493;BME280;49638;47.526;10.028;2022-08-19T15:24:49;91675.13;;;14.95;100.00
63493;BME280;49638;47.526;10.028;2022-08-19T15:27:50;91680.94;;;14.97;100.00
63493;BME280;49638;47.526;10.028;2022-08-19T15:30:51;91680.44;;;14.95;100.00
63493;BME280;49638;47.526;10.028;2022-08-19T15:33:52;91684.94;;;15.00;100.00
63493;BME280;49638;47.526;10.028;2022-08-19T15:36:52;91689.97;;;15.01;100.00
63493;BME280;49638;47.526;10.028;2022-08-19T15:39:52;91695.59;;;15.00;100.00
63493;BME280;49638;47.526;10.028;2022-08-19T15:42:53;91701.69;;;15.05;100.00
63493;BME280;49638;47.526;10.028;2022-08-19T15:45:53;91708.91;;;15.05;100.00
63493;BME280;49638;47.526;10.028;2022-08-19T15:48:54;91715.00;;;15.05;100.00
63493;BME280;49638;47.526;10.028;2022-08-19T15:51:55;91714.47;;;15.03;100.00
63493;BME280;49638;47.526;10.028;2022-08-19T15:54:57;91711.84;;;14.98;100.00